Time;durP1;ratioP1;P1;durP2;ratioP2;P2;SDS_P1;SDS_P2;PMS_P1;PMS_P2;Temp;Humidity;BMP_temperature;BMP_pressure;BME280_temperature;BME280_humidity;BME280_pressure;Samples;Min_cycle;Max_cycle;Signal;HPM_P1;HPM_P2
2023/07/19 00:00:15;;;;;;;5.32;4.28;;;15.60;94.40;;;;;;5028014;28;20357;-63
2023/07/19 00:02:41;;;;;;;8.60;4.40;;;15.60;94.50;;;;;;5011023;28;20548;-63
2023/07/19 00:05:08;;;;;;;5.82;4.30;;;15.60;94.70;;;;;;5009067;28;20052;-62
2023/07/19 00:07:34;;;;;;;6.30;4.68;;;15.50;94.90;;;;;;5010406;28;20045;-63
2023/07/19 00:10:00;;;;;;;5.00;4.15;;;15.50;95.00;;;;;;5011704;28;20449;-63
2023/07/19 00:12:25;;;;;;;8.30;4.43;;;15.60;95.10;;;;;;5029638;28;20430;-62
2023/07/19 00:14:51;;;;;;;7.72;4.50;;;15.60;95.10;;;;;;5014282;28;20087;-63
2023/07/19 00:17:16;;;;;;;6.80;4.72;;;15.70;95.20;;;;;;5027964;28;20155;-63
2023/07/19 00:19:42;;;;;;;5.03;4.20;;;15.70;95.20;;;;;;5008935;28;20492;-64
2023/07/19 00:22:08;;;;;;;6.07;4.70;;;15.70;95.20;;;;;;5012131;28;20477;-63
2023/07/19 00:24:34;;;;;;;9.50;4.85;;;15.70;95.30;;;;;;5026861;28;20041;-62
2023/07/19 00:27:00;;;;;;;9.63;4.90;;;15.60;95.40;;;;;;5029370;28;20060;-62
2023/07/19 00:29:25;;;;;;;9.07;5.07;;;15.70;95.40;;;;;;5027450;28;20242;-62
2023/07/19 00:31:51;;;;;;;8.68;4.75;;;15.60;95.40;;;;;;5040152;28;20417;-64
2023/07/19 00:34:16;;;;;;;7.97;4.50;;;15.60;95.50;;;;;;5047247;28;20518;-62
2023/07/19 00:36:42;;;;;;;8.85;4.63;;;15.60;95.60;;;;;;5047815;28;20105;-62
2023/07/19 00:39:07;;;;;;;8.27;4.68;;;15.60;95.70;;;;;;5021437;28;20039;-63
2023/07/19 00:41:33;;;;;;;7.63;4.80;;;15.60;95.70;;;;;;5027000;28;20049;-62
2023/07/19 00:43:59;;;;;;;5.38;3.90;;;15.60;95.80;;;;;;5009129;28;20048;-64
2023/07/19 00:46:25;;;;;;;6.72;4.85;;;15.70;95.70;;;;;;5008403;28;20049;-63
2023/07/19 00:48:51;;;;;;;7.47;5.05;;;15.70;95.70;;;;;;5025954;28;20621;-62
2023/07/19 00:51:17;;;;;;;7.53;4.82;;;15.70;95.80;;;;;;5029921;28;20056;-62
2023/07/19 00:53:45;;;;;;;6.97;4.60;;;15.70;95.80;;;;;;5008941;28;20044;-63
2023/07/19 00:56:11;;;;;;;7.28;4.35;;;15.70;95.80;;;;;;5028785;28;20093;-63
2023/07/19 00:58:38;;;;;;;8.00;5.07;;;15.70;95.80;;;;;;5009991;28;20133;-62
2023/07/19 01:01:05;;;;;;;8.70;4.68;;;15.60;95.80;;;;;;5026954;28;20049;-63
2023/07/19 01:03:30;;;;;;;9.45;5.28;;;15.60;96.00;;;;;;5010736;28;20179;-62
2023/07/19 01:05:59;;;;;;;6.72;4.93;;;15.60;96.00;;;;;;5026111;28;20057;-62
2023/07/19 01:08:25;;;;;;;7.82;4.75;;;15.70;96.10;;;;;;5028909;28;20033;-63
2023/07/19 01:10:51;;;;;;;5.80;4.13;;;15.70;96.10;;;;;;5028140;28;20137;-63
2023/07/19 01:13:17;;;;;;;8.63;4.70;;;15.80;96.20;;;;;;5026461;28;20129;-63
2023/07/19 01:15:43;;;;;;;8.73;4.72;;;15.80;96.20;;;;;;5029391;28;20121;-62
2023/07/19 01:18:09;;;;;;;6.32;4.40;;;15.70;96.20;;;;;;5026269;28;20539;-63
2023/07/19 01:20:34;;;;;;;9.18;5.22;;;15.80;96.20;;;;;;5027699;28;20163;-63
2023/07/19 01:23:01;;;;;;;6.57;4.63;;;15.80;96.50;;;;;;5027508;28;20112;-61
2023/07/19 01:25:26;;;;;;;9.55;5.18;;;15.70;96.10;;;;;;5027309;28;20092;-63
2023/07/19 01:27:52;;;;;;;5.18;4.32;;;15.80;96.00;;;;;;5027965;28;20092;-62
2023/07/19 01:30:17;;;;;;;5.82;4.38;;;15.80;96.00;;;;;;5008744;28;20505;-62
2023/07/19 01:32:44;;;;;;;9.30;5.55;;;15.80;96.00;;;;;;5028234;28;20073;-62
2023/07/19 01:35:10;;;;;;;6.90;4.80;;;15.70;96.10;;;;;;5026286;28;20045;-62
2023/07/19 01:37:36;;;;;;;6.05;5.10;;;15.80;95.70;;;;;;5027988;28;20485;-63
2023/07/19 01:40:02;;;;;;;7.43;4.93;;;15.80;95.70;;;;;;5010140;28;20044;-62
2023/07/19 01:42:28;;;;;;;7.35;4.75;;;15.80;95.70;;;;;;5008801;28;20088;-63
2023/07/19 01:44:54;;;;;;;8.82;4.20;;;15.90;95.70;;;;;;5028191;28;20073;-64
2023/07/19 01:47:20;;;;;;;9.48;4.88;;;15.80;95.70;;;;;;5008421;28;20052;-63
2023/07/19 01:49:45;;;;;;;5.70;4.43;;;15.80;95.80;;;;;;5026209;28;20033;-63
2023/07/19 01:52:11;;;;;;;9.20;5.15;;;15.80;95.70;;;;;;5010548;28;20476;-62
2023/07/19 01:54:37;;;;;;;6.43;4.38;;;15.80;95.80;;;;;;5008268;28;20049;-64
2023/07/19 01:57:03;;;;;;;6.45;4.38;;;15.80;95.90;;;;;;5028568;28;20046;-62
2023/07/19 01:59:29;;;;;;;7.47;4.22;;;15.70;96.30;;;;;;5011645;28;20183;-63
2023/07/19 02:01:55;;;;;;;7.18;5.18;;;15.60;96.70;;;;;;5013564;28;20481;-63
2023/07/19 02:04:21;;;;;;;6.03;4.68;;;15.60;97.10;;;;;;5029393;28;20204;-63
2023/07/19 02:06:46;;;;;;;6.47;5.32;;;15.50;97.60;;;;;;5012387;28;20176;-63
2023/07/19 02:09:12;;;;;;;8.38;5.20;;;15.50;98.10;;;;;;5032175;28;20041;-63
2023/07/19 02:11:37;;;;;;;7.82;4.97;;;15.50;98.40;;;;;;5011938;28;20029;-63
2023/07/19 02:14:03;;;;;;;8.20;5.20;;;15.40;98.80;;;;;;5013565;28;20710;-63
2023/07/19 02:16:29;;;;;;;7.05;4.80;;;15.40;99.10;;;;;;5030031;28;20372;-63
2023/07/19 02:18:55;;;;;;;9.55;4.72;;;15.40;99.40;;;;;;5010863;28;20236;-63
2023/07/19 02:21:20;;;;;;;7.70;4.47;;;15.40;99.60;;;;;;5032523;28;20049;-64
2023/07/19 02:23:46;;;;;;;7.10;4.70;;;15.40;99.70;;;;;;5029560;28;20049;-63
2023/07/19 02:26:11;;;;;;;6.90;4.65;;;15.40;99.90;;;;;;5031111;28;20155;-63
2023/07/19 02:28:37;;;;;;;8.25;5.20;;;15.40;99.90;;;;;;5030688;28;20148;-64
2023/07/19 02:31:03;;;;;;;6.78;5.28;;;15.40;99.90;;;;;;5012356;28;20037;-64
2023/07/19 02:33:29;;;;;;;7.35;4.90;;;15.30;99.90;;;;;;5030498;28;20030;-63
2023/07/19 02:35:57;;;;;;;7.97;5.43;;;15.30;99.90;;;;;;5029103;28;20385;-63
2023/07/19 02:38:23;;;;;;;9.23;5.13;;;15.30;99.90;;;;;;5013754;28;20073;-63
2023/07/19 02:40:49;;;;;;;7.25;4.65;;;15.30;99.90;;;;;;5012446;28;20623;-63
2023/07/19 02:43:15;;;;;;;10.25;4.82;;;15.30;99.90;;;;;;5028939;28;20053;-64
2023/07/19 02:45:41;;;;;;;8.55;4.75;;;15.20;99.90;;;;;;5030618;28;20519;-63
2023/07/19 02:48:07;;;;;;;6.90;5.10;;;15.20;99.90;;;;;;5028636;28;20052;-63
2023/07/19 02:50:32;;;;;;;7.85;5.03;;;15.20;99.90;;;;;;5031054;28;20453;-63
2023/07/19 02:52:58;;;;;;;7.07;5.40;;;15.30;99.90;;;;;;5029462;28;20058;-63
2023/07/19 02:55:23;;;;;;;7.45;5.05;;;15.30;99.90;;;;;;5012868;28;20047;-64
2023/07/19 02:57:49;;;;;;;6.75;4.90;;;15.30;99.90;;;;;;5029596;28;20462;-63
2023/07/19 03:00:14;;;;;;;7.60;4.30;;;15.30;99.90;;;;;;5027995;28;20045;-64
2023/07/19 03:02:40;;;;;;;11.48;4.80;;;15.30;99.90;;;;;;5012821;28;20453;-63
2023/07/19 03:05:06;;;;;;;6.10;4.68;;;15.30;99.90;;;;;;5028111;28;20087;-63
2023/07/19 03:07:32;;;;;;;7.00;4.85;;;15.30;99.90;;;;;;5030731;28;20091;-63
2023/07/19 03:09:58;;;;;;;6.10;5.05;;;15.20;99.90;;;;;;5010765;28;20073;-63
2023/07/19 03:12:24;;;;;;;7.22;4.95;;;15.20;99.90;;;;;;5010982;28;20501;-64
2023/07/19 03:14:50;;;;;;;9.32;5.13;;;15.10;99.90;;;;;;5030864;28;20065;-63
2023/07/19 03:17:15;;;;;;;7.80;5.00;;;15.10;99.90;;;;;;5010625;28;20048;-63
2023/07/19 03:19:41;;;;;;;6.45;5.15;;;15.20;99.90;;;;;;5011792;28;20060;-64
2023/07/19 03:22:06;;;;;;;6.47;4.88;;;15.20;99.90;;;;;;5049948;28;20045;-63
2023/07/19 03:24:33;;;;;;;8.13;4.80;;;15.20;99.90;;;;;;5048669;28;20428;-65
2023/07/19 03:26:58;;;;;;;12.63;5.75;;;15.20;99.90;;;;;;5032250;28;20068;-64
2023/07/19 03:29:24;;;;;;;8.40;5.47;;;15.30;99.90;;;;;;5048424;28;20033;-64
2023/07/19 03:31:49;;;;;;;6.13;4.75;;;15.30;99.90;;;;;;5049943;28;20064;-65
2023/07/19 03:34:15;;;;;;;8.88;5.90;;;15.30;99.90;;;;;;5046721;28;20464;-63
2023/07/19 03:36:40;;;;;;;6.15;5.07;;;15.40;99.90;;;;;;5031421;28;20380;-63
2023/07/19 03:39:06;;;;;;;9.68;5.25;;;15.30;99.90;;;;;;5031500;28;20400;-63
2023/07/19 03:41:31;;;;;;;10.02;6.10;;;15.40;99.90;;;;;;5048315;28;20612;-63
2023/07/19 03:43:57;;;;;;;7.45;5.50;;;15.30;99.90;;;;;;5031986;28;20048;-63
2023/07/19 03:46:23;;;;;;;9.43;5.53;;;15.30;99.90;;;;;;5029698;28;20140;-64
2023/07/19 03:48:48;;;;;;;7.53;5.55;;;15.20;99.90;;;;;;5029978;28;20051;-63
2023/07/19 03:51:14;;;;;;;10.60;5.35;;;15.20;99.90;;;;;;5031594;28;20476;-64
2023/07/19 03:53:39;;;;;;;9.65;6.45;;;15.30;99.90;;;;;;5047860;28;20069;-65
2023/07/19 03:56:05;;;;;;;9.77;5.13;;;15.30;99.90;;;;;;5032254;28;20110;-63
2023/07/19 03:58:31;;;;;;;8.95;6.20;;;15.30;99.90;;;;;;5029660;28;20385;-63
2023/07/19 04:00:58;;;;;;;7.82;6.15;;;15.40;99.90;;;;;;5049680;28;20566;-63
2023/07/19 04:03:25;;;;;;;10.48;6.55;;;15.40;99.90;;;;;;5047401;28;20075;-64
2023/07/19 04:05:53;;;;;;;10.25;5.85;;;15.40;99.90;;;;;;5047499;28;20111;-63
2023/07/19 04:08:18;;;;;;;6.88;5.10;;;15.40;99.90;;;;;;5049717;28;20111;-63
2023/07/19 04:10:44;;;;;;;7.68;6.03;;;15.40;99.90;;;;;;5030035;28;20079;-63
2023/07/19 04:13:13;;;;;;;9.95;6.28;;;15.50;99.90;;;;;;5049135;28;20041;-64
2023/07/19 04:15:39;;;;;;;9.70;6.53;;;15.50;99.90;;;;;;5048720;28;20029;-63
2023/07/19 04:18:05;;;;;;;10.32;6.43;;;15.50;99.90;;;;;;5028600;28;20087;-65
2023/07/19 04:20:31;;;;;;;10.68;6.30;;;15.50;99.90;;;;;;5022681;28;20068;-63
2023/07/19 04:22:56;;;;;;;9.77;6.18;;;15.50;99.90;;;;;;5009210;28;20037;-63
2023/07/19 04:25:24;;;;;;;12.10;6.53;;;15.50;99.90;;;;;;5008316;28;20149;-63
2023/07/19 04:27:53;;;;;;;7.85;6.30;;;15.50;99.90;;;;;;5006050;28;20054;-62
2023/07/19 04:30:19;;;;;;;8.73;6.40;;;15.50;99.90;;;;;;5006409;28;20431;-64
2023/07/19 04:32:45;;;;;;;9.80;6.70;;;15.60;99.90;;;;;;5009456;28;20164;-62
2023/07/19 04:35:10;;;;;;;12.48;6.50;;;15.60;99.90;;;;;;5007241;28;20521;-63
2023/07/19 04:37:38;;;;;;;8.95;6.53;;;15.60;99.90;;;;;;5009567;28;21077;-63
2023/07/19 04:40:06;;;;;;;11.55;7.30;;;15.70;99.90;;;;;;5006480;28;20041;-62
2023/07/19 04:42:31;;;;;;;10.50;6.95;;;15.70;99.90;;;;;;5008320;28;20044;-64
2023/07/19 04:44:57;;;;;;;11.25;7.25;;;15.70;99.90;;;;;;5024114;28;20382;-64
2023/07/19 04:47:22;;;;;;;12.30;6.57;;;15.80;99.90;;;;;;5007345;28;20057;-63
2023/07/19 04:49:48;;;;;;;9.57;6.82;;;15.80;99.90;;;;;;5006039;28;20049;-63
2023/07/19 04:52:14;;;;;;;10.90;7.15;;;15.90;99.90;;;;;;5008886;28;20084;-63
2023/07/19 04:54:39;;;;;;;8.52;6.57;;;16.00;99.90;;;;;;5008625;28;20078;-63
2023/07/19 04:57:05;;;;;;;11.48;6.53;;;16.00;99.90;;;;;;5007328;28;20057;-63
2023/07/19 04:59:31;;;;;;;13.02;7.35;;;16.10;99.90;;;;;;5006880;28;20045;-64
2023/07/19 05:01:57;;;;;;;10.98;7.50;;;16.20;99.90;;;;;;5009212;28;20045;-63
2023/07/19 05:04:22;;;;;;;11.25;7.20;;;16.30;99.90;;;;;;5004369;28;20052;-63
2023/07/19 05:06:49;;;;;;;9.90;7.88;;;16.30;99.90;;;;;;5007455;28;20350;-64
2023/07/19 05:09:15;;;;;;;11.63;7.20;;;16.30;99.90;;;;;;5008014;28;20042;-63
2023/07/19 05:11:41;;;;;;;11.05;7.10;;;16.40;99.90;;;;;;5022507;28;20068;-62
2023/07/19 05:14:07;;;;;;;14.32;6.95;;;16.50;99.90;;;;;;5009438;28;20078;-63
2023/07/19 05:16:35;;;;;;;14.15;7.75;;;16.50;99.90;;;;;;5005315;28;20069;-64
2023/07/19 05:19:01;;;;;;;12.48;7.13;;;16.50;99.90;;;;;;5005558;28;20042;-63
2023/07/19 05:21:27;;;;;;;11.27;6.93;;;16.50;99.90;;;;;;5008074;28;20053;-63
2023/07/19 05:23:53;;;;;;;8.80;6.85;;;16.50;99.90;;;;;;5005224;28;20520;-62
2023/07/19 05:26:18;;;;;;;12.70;7.88;;;16.50;99.90;;;;;;5007619;28;20077;-62
2023/07/19 05:28:45;;;;;;;12.43;7.75;;;16.50;99.90;;;;;;5006990;28;20050;-63
2023/07/19 05:31:11;;;;;;;9.32;6.60;;;16.50;99.90;;;;;;5008153;28;20034;-63
2023/07/19 05:33:37;;;;;;;12.88;7.45;;;16.50;99.90;;;;;;5009500;28;20099;-63
2023/07/19 05:36:03;;;;;;;13.43;7.45;;;16.50;99.90;;;;;;5013723;28;20025;-62
2023/07/19 05:38:28;;;;;;;12.52;7.45;;;16.50;99.80;;;;;;5022782;28;20030;-63
2023/07/19 05:41:02;;;;;;;10.00;7.53;;;16.50;99.60;;;;;;5024639;28;20046;-63
2023/07/19 05:43:28;;;;;;;9.80;7.30;;;16.50;99.40;;;;;;5031515;28;20063;-62
2023/07/19 05:46:00;;;;;;;10.00;6.97;;;16.50;99.40;;;;;;5010147;28;20107;-62
2023/07/19 05:48:26;;;;;;;12.52;7.68;;;16.50;99.30;;;;;;5008088;28;20270;-62
2023/07/19 05:50:52;;;;;;;10.43;6.85;;;16.50;99.20;;;;;;5010408;28;20133;-62
2023/07/19 05:53:17;;;;;;;9.75;6.20;;;16.60;99.10;;;;;;5010364;28;20045;-62
2023/07/19 05:55:43;;;;;;;9.80;6.80;;;16.60;99.10;;;;;;5006835;28;20128;-63
2023/07/19 05:58:09;;;;;;;12.20;6.38;;;16.60;99.00;;;;;;5016687;28;20680;-63
2023/07/19 06:00:34;;;;;;;9.27;7.15;;;16.70;99.00;;;;;;5001434;28;20072;-64
2023/07/19 06:03:00;;;;;;;11.05;6.88;;;16.70;98.80;;;;;;5016507;28;20099;-63
2023/07/19 06:05:25;;;;;;;11.95;6.43;;;16.70;98.70;;;;;;4997080;28;20540;-62
2023/07/19 06:07:51;;;;;;;10.50;6.50;;;16.70;98.60;;;;;;5016803;28;20051;-64
2023/07/19 06:10:18;;;;;;;9.23;5.95;;;16.80;98.50;;;;;;4998884;28;20061;-64
2023/07/19 06:12:44;;;;;;;10.07;6.47;;;16.80;98.30;;;;;;5008684;28;20148;-63
2023/07/19 06:15:10;;;;;;;10.20;6.38;;;16.90;98.20;;;;;;5002499;28;20038;-63
2023/07/19 06:17:36;;;;;;;8.35;6.50;;;16.90;98.10;;;;;;5007986;28;20091;-62
2023/07/19 06:20:07;;;;;;;9.30;6.53;;;16.90;98.00;;;;;;5001333;28;20065;-63
2023/07/19 06:22:32;;;;;;;11.50;6.47;;;17.00;97.90;;;;;;5011723;28;20064;-63
2023/07/19 06:24:58;;;;;;;10.23;6.70;;;16.90;97.90;;;;;;4999598;28;20044;-62
2023/07/19 06:27:24;;;;;;;10.88;6.25;;;16.90;98.00;;;;;;5034996;28;20063;-63
2023/07/19 06:29:53;;;;;;;13.20;6.07;;;16.90;98.00;;;;;;5021295;28;20052;-63
2023/07/19 06:32:18;;;;;;;12.27;5.88;;;17.00;97.90;;;;;;5031057;28;20530;-64
2023/07/19 06:34:44;;;;;;;10.05;5.88;;;17.00;97.80;;;;;;5019712;28;20041;-63
2023/07/19 06:37:09;;;;;;;9.43;6.15;;;17.10;97.80;;;;;;5021745;28;20506;-64
2023/07/19 06:39:35;;;;;;;11.65;6.30;;;17.10;97.80;;;;;;5035945;28;20044;-65
2023/07/19 06:42:00;;;;;;;9.25;5.55;;;17.00;97.70;;;;;;5036630;28;20044;-63
2023/07/19 06:44:26;;;;;;;10.25;5.63;;;17.10;97.50;;;;;;5008852;28;20599;-63
2023/07/19 06:46:52;;;;;;;7.53;4.90;;;17.10;97.10;;;;;;5036452;28;20041;-62
2023/07/19 06:49:19;;;;;;;9.48;4.70;;;17.20;96.80;;;;;;5030984;28;20060;-67
2023/07/19 06:51:44;;;;;;;8.40;4.53;;;17.30;96.50;;;;;;5034277;28;20068;-63
2023/07/19 06:54:10;;;;;;;6.53;4.63;;;17.30;96.10;;;;;;5017690;28;20901;-62
2023/07/19 06:56:35;;;;;;;6.50;4.55;;;17.40;95.90;;;;;;5026193;28;20046;-65
2023/07/19 06:59:01;;;;;;;6.43;3.67;;;17.50;95.60;;;;;;5007004;28;20140;-63
2023/07/19 07:01:27;;;;;;;6.38;3.45;;;17.60;95.30;;;;;;5019763;28;20062;-64
2023/07/19 07:03:52;;;;;;;7.60;4.13;;;17.70;95.10;;;;;;5006891;28;20110;-64
2023/07/19 07:06:18;;;;;;;5.07;3.05;;;17.80;94.60;;;;;;5046001;28;20131;-63
2023/07/19 07:08:44;;;;;;;5.05;3.45;;;17.80;94.20;;;;;;5020124;28;20603;-64
2023/07/19 07:11:10;;;;;;;7.10;3.80;;;17.80;93.80;;;;;;5014400;28;20492;-63
2023/07/19 07:13:35;;;;;;;6.30;3.22;;;17.70;93.40;;;;;;5035051;28;20186;-64
2023/07/19 07:16:02;;;;;;;8.18;3.30;;;17.80;93.10;;;;;;5017560;28;20897;-63
2023/07/19 07:18:28;;;;;;;4.38;3.10;;;17.70;92.80;;;;;;5017971;28;20155;-65
2023/07/19 07:20:53;;;;;;;5.60;2.90;;;17.60;92.40;;;;;;5011926;28;20041;-64
2023/07/19 07:23:19;;;;;;;4.18;2.80;;;17.60;92.40;;;;;;5041781;28;20368;-63
2023/07/19 07:25:44;;;;;;;8.80;3.40;;;17.60;92.20;;;;;;5031980;28;20200;-63
2023/07/19 07:28:10;;;;;;;7.72;3.05;;;17.60;92.00;;;;;;5033305;28;20505;-63
2023/07/19 07:30:36;;;;;;;5.88;2.95;;;17.50;91.80;;;;;;5003286;28;20081;-63
2023/07/19 07:33:03;;;;;;;5.60;2.78;;;17.60;91.70;;;;;;5015872;28;20150;-63
2023/07/19 07:35:28;;;;;;;6.40;2.75;;;17.70;91.50;;;;;;5006136;28;20070;-62
2023/07/19 07:37:54;;;;;;;7.55;3.10;;;17.80;91.20;;;;;;5022914;28;20919;-62
2023/07/19 07:40:20;;;;;;;5.72;2.78;;;17.90;90.90;;;;;;4994377;28;20049;-64
2023/07/19 07:42:45;;;;;;;4.07;2.70;;;18.10;90.60;;;;;;5026536;28;20108;-63
2023/07/19 07:45:11;;;;;;;4.95;2.78;;;18.20;90.20;;;;;;5025915;28;20044;-63
2023/07/19 07:47:37;;;;;;;4.85;2.45;;;18.20;90.10;;;;;;5012736;28;20232;-62
2023/07/19 07:50:04;;;;;;;5.85;2.88;;;18.30;90.00;;;;;;5010941;28;20028;-64
2023/07/19 07:52:30;;;;;;;4.68;2.50;;;18.20;89.50;;;;;;5004079;28;20037;-63
2023/07/19 07:54:56;;;;;;;6.88;3.35;;;18.30;89.50;;;;;;4999903;28;20040;-65
2023/07/19 07:57:21;;;;;;;7.70;3.10;;;18.30;89.10;;;;;;5008814;28;20037;-63
2023/07/19 07:59:47;;;;;;;4.43;2.60;;;18.30;88.70;;;;;;5008071;28;20289;-63
2023/07/19 08:02:13;;;;;;;5.13;2.67;;;18.40;88.50;;;;;;5032100;28;20041;-63
2023/07/19 08:04:38;;;;;;;5.32;2.55;;;18.30;87.90;;;;;;4996266;28;20045;-62
2023/07/19 08:07:04;;;;;;;8.25;3.00;;;18.40;87.80;;;;;;5023990;28;20048;-64
2023/07/19 08:09:29;;;;;;;4.30;2.35;;;18.50;87.50;;;;;;5021730;28;20427;-63
2023/07/19 08:11:56;;;;;;;6.55;2.80;;;18.60;87.20;;;;;;5029307;28;20147;-63
2023/07/19 08:14:22;;;;;;;6.85;2.97;;;18.60;86.80;;;;;;4997402;28;20147;-63
2023/07/19 08:16:49;;;;;;;3.65;2.63;;;18.70;86.60;;;;;;5004798;28;20432;-63
2023/07/19 08:19:15;;;;;;;7.60;2.83;;;18.70;86.20;;;;;;4995296;28;20049;-63
2023/07/19 08:21:40;;;;;;;5.03;2.45;;;18.90;86.00;;;;;;5013081;28;20132;-65
2023/07/19 08:24:06;;;;;;;6.85;2.78;;;19.00;85.10;;;;;;4988137;28;20037;-64
2023/07/19 08:26:32;;;;;;;5.13;2.80;;;19.10;85.90;;;;;;5034957;28;20057;-64
2023/07/19 08:28:57;;;;;;;3.65;2.33;;;18.90;85.60;;;;;;4988489;28;20297;-64
2023/07/19 08:31:23;;;;;;;6.65;2.50;;;19.00;86.10;;;;;;5020223;28;20040;-64
2023/07/19 08:33:49;;;;;;;5.03;2.30;;;19.00;85.80;;;;;;4994732;28;20333;-65
2023/07/19 08:36:14;;;;;;;4.95;2.15;;;19.00;85.30;;;;;;5017498;28;20753;-64
2023/07/19 08:38:40;;;;;;;5.70;2.20;;;19.10;84.50;;;;;;5022528;28;20076;-64
2023/07/19 08:41:06;;;;;;;4.72;1.92;;;19.00;83.80;;;;;;5011931;28;20048;-63
2023/07/19 08:43:35;;;;;;;6.15;2.17;;;19.00;83.50;;;;;;5000936;28;20921;-65
2023/07/19 08:46:01;;;;;;;3.35;2.40;;;19.00;82.90;;;;;;5000132;28;20052;-63
2023/07/19 08:48:27;;;;;;;3.65;2.00;;;19.00;82.80;;;;;;5024378;28;20040;-65
2023/07/19 08:51:01;;;;;;;5.25;1.90;;;19.00;82.50;;;;;;4991942;28;20487;-62
2023/07/19 08:53:27;;;;;;;6.55;2.00;;;19.30;80.90;;;;;;5023224;28;20045;-66
2023/07/19 08:55:54;;;;;;;4.50;1.50;;;19.60;81.10;;;;;;5010881;28;20159;-65
2023/07/19 08:58:20;;;;;;;3.78;1.85;;;19.80;79.80;;;;;;4999958;28;20051;-64
2023/07/19 09:00:47;;;;;;;4.45;1.90;;;19.90;79.20;;;;;;4997347;28;20045;-65
2023/07/19 09:03:14;;;;;;;3.33;1.77;;;20.20;78.80;;;;;;5016381;28;20526;-66
2023/07/19 09:05:40;;;;;;;7.43;2.17;;;20.40;77.90;;;;;;4979920;28;20049;-63
2023/07/19 09:08:09;;;;;;;5.63;1.98;;;20.30;77.10;;;;;;4995344;28;20037;-64
2023/07/19 09:10:35;;;;;;;3.38;2.20;;;20.20;76.80;;;;;;5005927;28;20044;-65
2023/07/19 09:13:04;;;;;;;6.72;2.45;;;20.10;76.90;;;;;;5032135;28;20076;-63
2023/07/19 09:15:29;;;;;;;2.70;1.88;;;20.00;77.00;;;;;;4983765;28;20460;-66
2023/07/19 09:17:55;;;;;;;4.15;1.77;;;19.80;77.60;;;;;;5013769;28;20045;-64
2023/07/19 09:20:21;;;;;;;7.38;2.00;;;19.70;78.00;;;;;;4996863;28;20041;-64
2023/07/19 09:22:46;;;;;;;5.35;2.20;;;19.70;78.20;;;;;;5008191;28;20061;-64
2023/07/19 09:25:12;;;;;;;4.78;1.75;;;19.60;78.20;;;;;;4961968;28;20053;-64
2023/07/19 09:27:41;;;;;;;5.70;1.80;;;19.50;78.10;;;;;;5016005;28;20051;-63
2023/07/19 09:30:14;;;;;;;5.85;1.75;;;19.40;77.60;;;;;;4996913;28;20132;-63
2023/07/19 09:32:41;;;;;;;2.28;1.55;;;19.30;77.70;;;;;;5018100;28;20033;-63
2023/07/19 09:35:08;;;;;;;4.57;1.83;;;19.30;77.90;;;;;;5001084;28;20049;-64
2023/07/19 09:37:34;;;;;;;3.42;1.60;;;19.30;77.70;;;;;;5009566;28;20054;-65
2023/07/19 09:40:02;;;;;;;3.38;1.73;;;19.50;77.40;;;;;;4983501;28;20048;-64
2023/07/19 09:42:31;;;;;;;4.55;1.67;;;19.90;76.90;;;;;;5005227;28;20059;-65
2023/07/19 09:44:59;;;;;;;2.60;1.40;;;20.50;75.70;;;;;;4999194;28;20423;-63
2023/07/19 09:47:25;;;;;;;5.03;1.63;;;20.80;74.40;;;;;;5014303;28;20037;-65
2023/07/19 09:49:51;;;;;;;6.07;1.90;;;21.10;73.20;;;;;;4981874;28;20033;-64
2023/07/19 09:52:18;;;;;;;2.60;1.27;;;20.90;72.90;;;;;;5013681;28;20515;-64
2023/07/19 09:54:44;;;;;;;2.88;1.40;;;20.70;72.60;;;;;;5023740;28;20045;-63
2023/07/19 09:57:11;;;;;;;2.30;1.50;;;20.50;72.70;;;;;;5040248;28;20056;-63
2023/07/19 09:59:49;;;;;;;3.80;1.90;;;20.40;72.80;;;;;;5041274;28;20047;-63
2023/07/19 10:02:15;;;;;;;2.88;1.50;;;20.50;71.10;;;;;;5045489;28;20087;-64
2023/07/19 10:04:44;;;;;;;6.35;2.00;;;20.50;72.70;;;;;;5044260;28;20491;-63
2023/07/19 10:07:12;;;;;;;4.47;2.22;;;20.80;72.00;;;;;;5025220;28;20488;-63
2023/07/19 10:09:39;;;;;;;7.13;2.00;;;21.50;70.90;;;;;;5028250;28;20069;-64
2023/07/19 10:12:18;;;;;;;3.13;1.83;;;22.30;68.50;;;;;;5045367;28;20048;-63
2023/07/19 10:14:59;;;;;;;4.40;1.95;;;23.30;64.80;;;;;;5044628;28;20102;-65
2023/07/19 10:17:24;;;;;;;5.50;2.10;;;24.20;62.70;;;;;;5012684;28;20411;-69
2023/07/19 10:19:56;;;;;;;4.68;1.80;;;24.60;62.40;;;;;;5024665;28;20048;-63
2023/07/19 10:22:42;;;;;;;2.85;1.80;;;24.20;57.50;;;;;;5051188;28;20044;-64
2023/07/19 10:25:07;;;;;;;3.38;1.63;;;24.10;61.70;;;;;;5040859;28;20091;-65
2023/07/19 10:27:35;;;;;;;5.18;1.98;;;24.00;61.90;;;;;;5045190;28;20065;-64
2023/07/19 10:30:05;;;;;;;3.72;2.13;;;24.00;61.30;;;;;;5028394;28;20492;-65
2023/07/19 10:32:30;;;;;;;;;;;24.80;60.10;;;;;;5029520;28;20076;-65
2023/07/19 10:34:56;;;;;;;3.20;1.45;;;25.50;55.30;;;;;;5028473;28;19960;-64
2023/07/19 10:37:22;;;;;;;3.17;1.27;;;25.60;58.10;;;;;;5048895;28;20119;-63
2023/07/19 10:39:48;;;;;;;4.53;1.40;;;25.20;57.50;;;;;;5047083;28;20040;-64
2023/07/19 10:42:13;;;;;;;2.15;1.08;;;25.00;57.20;;;;;;5047738;28;20063;-63
2023/07/19 10:44:40;;;;;;;2.45;1.05;;;24.70;57.70;;;;;;5047076;28;20500;-65
2023/07/19 10:47:05;;;;;;;3.40;1.48;;;24.20;58.40;;;;;;5028346;28;20032;-63
2023/07/19 10:49:31;;;;;;;3.58;1.10;;;23.60;59.30;;;;;;5047818;28;20640;-63
2023/07/19 10:51:58;;;;;;;3.50;1.20;;;23.10;59.90;;;;;;5046200;28;20037;-63
2023/07/19 10:54:25;;;;;;;3.17;1.00;;;22.70;60.60;;;;;;5049913;28;20087;-64
2023/07/19 10:56:53;;;;;;;4.95;1.40;;;22.40;61.40;;;;;;5028076;28;20047;-62
2023/07/19 10:59:19;;;;;;;8.32;1.50;;;21.60;64.10;;;;;;5050132;28;20098;-62
2023/07/19 11:01:48;;;;;;;8.55;2.17;;;19.90;73.60;;;;;;5040354;28;20060;-64
2023/07/19 11:04:15;;;;;;;5.43;2.15;;;18.70;85.00;;;;;;5019267;28;20041;-66
2023/07/19 11:06:59;;;;;;;4.80;2.00;;;18.50;90.60;;;;;;5030649;28;20068;-65
2023/07/19 11:09:25;;;;;;;6.13;2.25;;;18.10;96.60;;;;;;5031119;28;20055;-66
2023/07/19 11:11:51;;;;;;;3.60;2.00;;;18.00;95.20;;;;;;5047250;28;20036;-66
2023/07/19 11:14:30;;;;;;;4.47;2.40;;;17.50;96.90;;;;;;5029464;28;20125;-66
2023/07/19 11:16:56;;;;;;;5.10;2.10;;;17.30;99.90;;;;;;5050037;28;20098;-65
2023/07/19 11:19:39;;;;;;;3.53;1.98;;;17.40;99.70;;;;;;5045122;28;20056;-65
2023/07/19 11:22:07;;;;;;;9.15;2.67;;;17.20;99.90;;;;;;5028312;28;20555;-66
2023/07/19 11:24:40;;;;;;;4.80;1.67;;;17.10;99.90;;;;;;5030507;28;20134;-65
2023/07/19 11:27:08;;;;;;;5.05;1.67;;;17.00;99.90;;;;;;5029165;28;20151;-65
2023/07/19 11:29:34;;;;;;;2.75;1.63;;;17.10;99.90;;;;;;5030068;28;20045;-64
2023/07/19 11:32:18;;;;;;;5.13;2.28;;;17.00;99.90;;;;;;5022384;28;20353;-67
2023/07/19 11:34:45;;;;;;;3.33;1.50;;;17.10;99.90;;;;;;5018651;28;20632;-65
2023/07/19 11:37:25;;;;;;;4.28;1.88;;;17.30;99.90;;;;;;5026891;28;20041;-64
2023/07/19 11:39:51;;;;;;;4.20;1.63;;;17.60;99.90;;;;;;5043739;28;20136;-63
2023/07/19 11:42:39;;;;;;;2.33;1.70;;;17.70;99.90;;;;;;5035282;28;20368;-65
2023/07/19 11:45:20;;;;;;;4.47;1.40;;;18.00;99.90;;;;;;5052089;28;20051;-64
2023/07/19 11:47:48;;;;;;;5.47;1.50;;;18.30;99.90;;;;;;5051367;28;20052;-64
2023/07/19 11:50:14;;;;;;;3.00;1.30;;;18.50;99.90;;;;;;5034725;28;20055;-64
2023/07/19 11:52:46;;;;;;;3.83;1.50;;;18.40;99.90;;;;;;5018907;28;20457;-63
2023/07/19 11:55:15;;;;;;;2.08;1.38;;;18.10;99.90;;;;;;5044295;28;20439;-63
2023/07/19 11:57:42;;;;;;;10.68;2.60;;;17.60;99.90;;;;;;5027237;28;20510;-62
2023/07/19 12:00:10;;;;;;;13.25;3.25;;;17.10;99.90;;;;;;5031852;28;20452;-62
2023/07/19 12:02:36;;;;;;;33.33;4.07;;;16.80;99.90;;;;;;5025598;28;20056;-62
2023/07/19 12:05:05;;;;;;;12.07;3.25;;;16.80;99.90;;;;;;5045118;28;20166;-63
2023/07/19 12:07:32;;;;;;;7.72;3.47;;;16.80;99.90;;;;;;5046536;28;20148;-62
2023/07/19 12:10:02;;;;;;;4.68;3.30;;;17.50;99.90;;;;;;5048038;28;20128;-61
2023/07/19 12:12:28;;;;;;;;;;;16.80;99.90;;;;;;5045809;28;20538;-63
2023/07/19 12:14:53;;;;;;;8.80;3.92;;;16.70;99.90;;;;;;5048399;28;19920;-62
2023/07/19 12:17:19;;;;;;;7.20;3.80;;;16.80;99.90;;;;;;5028775;28;20043;-63
2023/07/19 12:19:44;;;;;;;6.03;3.95;;;17.50;99.90;;;;;;5025341;28;20072;-65
2023/07/19 12:22:10;;;;;;;5.72;3.70;;;17.20;99.90;;;;;;5048843;28;20514;-65
2023/07/19 12:24:36;;;;;;;8.15;3.90;;;17.30;99.90;;;;;;5027439;28;20044;-61
2023/07/19 12:27:02;;;;;;;9.35;3.95;;;17.40;99.90;;;;;;5012065;28;20476;-64
2023/07/19 12:29:27;;;;;;;7.72;3.72;;;17.70;99.90;;;;;;5022431;28;20044;-63
2023/07/19 12:31:53;;;;;;;7.40;3.90;;;17.70;99.90;;;;;;5045781;28;20067;-65
2023/07/19 12:34:20;;;;;;;15.65;4.03;;;17.10;99.90;;;;;;5026902;28;20067;-64
2023/07/19 12:36:47;;;;;;;17.60;4.97;;;17.50;99.90;;;;;;5027207;28;20512;-63
2023/07/19 12:39:14;;;;;;;9.30;4.32;;;16.60;99.90;;;;;;5046807;28;20052;-62
2023/07/19 12:41:40;;;;;;;9.77;4.68;;;16.50;99.90;;;;;;5010100;28;20041;-63